Old Forge, NY

6:25 AM EST on January 31, 2015 (GMT -0500)
Adirondack Regional | Change Station
CLOSE
Current Station
Airport
Location: Saranac Lake,
Elevation: 1660 ft
Nearby Weather Stations
Active Advisory: Wind Chill Warning

Elev 1660 ft 44.39 °N, 74.21 °W | Updated 34 minutes ago

Mostly Cloudy
Mostly Cloudy
-12 °F
Feels Like -24 °F
N
5
Wind Variable Wind from Variable

Today
High -- | Low -- °F
--% Chance of Precip.
Yesterday
High -- | Low -- °F
Precip. -- in
7:17 AM 5:08 PM
Waxing Gibbous, 89% visible
Pressure 30.19 in
Visibility 9.0 miles
Clouds Scattered Clouds 1100 ft
Windchill -24 °F
Dew Point -17 °F
Humidity 78%
Rainfall 0.00 in
Snow Depth Not available.
UV 0 out of 12
Pollen .10 out of 12
Air Quality Not available.
Flu Activity Not available.
METAR KSLK 311051Z AUTO VRB04KT 9SM SCT011 M24/M27 A3005 RMK AO2 SLP224 T12441272 $

More Conditions Fewer Conditions

Pressure 30.19 in
Visibility 9.0 miles
Clouds Scattered Clouds 1100 ft
Windchill -24 °F
Dew Point -17 °F
Humidity 78%
Rainfall 0.00 in
Snow Depth Not available.
UV 0 out of 12
Pollen .10 out of 12
Air Quality Not available.
Flu Activity Not available.
METAR KSLK 311051Z AUTO VRB04KT 9SM SCT011 M24/M27 A3005 RMK AO2 SLP224 T12441272 $

More Conditions Fewer Conditions

10-Day Weather Forecast

Almanac

Astronomy

Jan. 31, 2015 Rise Set
Actual Time
Civil Twilight
Nautical Twilight
Astronomical Twilight
Moon
Length of Visible Light
Length of Day
Tomorrow will be .
, % of the Moon is Illuminated

Today's Extremes

State Highs State Lows

Community

WunderPhotos

Upload Photos

1,792,032 photos uploaded!

WunderBlogs® & News

Nearby

Air Quality

  Air Quality AQ Index Pollutant
Not available.

Snow Depth

Station Depth Elevation

Earthquake Activity

City Distance Mag. Time & Date
Minimum magnitude displayed is 2.5.

Coastal Water Temperatures

Place Temperature

Nearby Weather Stations